sensor_id;sensor_type;location;lat;lon;timestamp;pressure;altitude;pressure_sealevel;temperature;humidity
57644;BME280;43474;46.510;6.686;2023-04-06T00:01:31;96672.94;;;2.37;77.68
57644;BME280;43474;46.510;6.686;2023-04-06T00:03:56;96656.34;;;2.30;76.38
57644;BME280;43474;46.510;6.686;2023-04-06T00:06:22;96665.00;;;2.30;77.88
57644;BME280;43474;46.510;6.686;2023-04-06T00:08:47;96660.88;;;2.36;74.68
57644;BME280;43474;46.510;6.686;2023-04-06T00:11:13;96657.38;;;2.44;74.37
57644;BME280;43474;46.510;6.686;2023-04-06T00:13:39;96645.16;;;2.36;76.10
57644;BME280;43474;46.510;6.686;2023-04-06T00:16:05;96655.72;;;2.43;74.06
57644;BME280;43474;46.510;6.686;2023-04-06T00:18:31;96663.56;;;2.43;76.04
57644;BME280;43474;46.510;6.686;2023-04-06T00:20:57;96657.72;;;2.41;75.02
57644;BME280;43474;46.510;6.686;2023-04-06T00:23:23;96655.81;;;2.35;74.59
57644;BME280;43474;46.510;6.686;2023-04-06T00:25:48;96643.16;;;2.23;75.02
57644;BME280;43474;46.510;6.686;2023-04-06T00:28:14;96623.34;;;2.14;77.93
57644;BME280;43474;46.510;6.686;2023-04-06T00:30:40;96653.09;;;2.28;78.57
57644;BME280;43474;46.510;6.686;2023-04-06T00:33:06;96658.22;;;2.21;78.71
57644;BME280;43474;46.510;6.686;2023-04-06T00:35:32;96654.34;;;2.32;77.89
57644;BME280;43474;46.510;6.686;2023-04-06T00:37:57;96652.66;;;2.39;75.46
57644;BME280;43474;46.510;6.686;2023-04-06T00:40:23;96652.50;;;2.55;73.36
57644;BME280;43474;46.510;6.686;2023-04-06T00:42:49;96647.88;;;2.43;75.17
57644;BME280;43474;46.510;6.686;2023-04-06T00:45:14;96664.22;;;2.59;73.35
57644;BME280;43474;46.510;6.686;2023-04-06T00:47:40;96642.09;;;2.47;74.97
57644;BME280;43474;46.510;6.686;2023-04-06T00:50:06;96658.78;;;2.46;75.54
57644;BME280;43474;46.510;6.686;2023-04-06T00:52:33;96652.03;;;2.37;75.79
57644;BME280;43474;46.510;6.686;2023-04-06T00:54:59;96638.13;;;2.22;78.23
57644;BME280;43474;46.510;6.686;2023-04-06T00:57:24;96648.22;;;2.25;78.03
57644;BME280;43474;46.510;6.686;2023-04-06T00:59:51;96654.53;;;2.16;79.46
57644;BME280;43474;46.510;6.686;2023-04-06T01:02:18;96648.38;;;2.08;80.33
57644;BME280;43474;46.510;6.686;2023-04-06T01:04:43;96629.78;;;2.03;79.16
57644;BME280;43474;46.510;6.686;2023-04-06T01:07:09;96641.97;;;2.11;79.34
57644;BME280;43474;46.510;6.686;2023-04-06T01:09:35;96636.81;;;2.03;80.32
57644;BME280;43474;46.510;6.686;2023-04-06T01:12:01;96629.78;;;2.03;81.35
57644;BME280;43474;46.510;6.686;2023-04-06T01:14:27;96623.19;;;1.93;81.23
57644;BME280;43474;46.510;6.686;2023-04-06T01:16:53;96607.13;;;1.81;79.99
57644;BME280;43474;46.510;6.686;2023-04-06T01:19:19;96626.00;;;1.91;79.45
57644;BME280;43474;46.510;6.686;2023-04-06T01:21:46;96603.59;;;1.74;81.37
57644;BME280;43474;46.510;6.686;2023-04-06T01:24:11;96588.47;;;1.69;81.50
57644;BME280;43474;46.510;6.686;2023-04-06T01:26:38;96592.81;;;1.77;78.37
57644;BME280;43474;46.510;6.686;2023-04-06T01:29:04;96598.97;;;1.84;79.22
57644;BME280;43474;46.510;6.686;2023-04-06T01:31:29;96616.16;;;1.93;79.37
57644;BME280;43474;46.510;6.686;2023-04-06T01:33:55;96614.03;;;1.97;76.59
57644;BME280;43474;46.510;6.686;2023-04-06T01:36:21;96583.25;;;1.69;81.78
57644;BME280;43474;46.510;6.686;2023-04-06T01:38:47;96602.53;;;1.83;77.58
57644;BME280;43474;46.510;6.686;2023-04-06T01:41:12;96612.75;;;1.93;78.67
57644;BME280;43474;46.510;6.686;2023-04-06T01:43:38;96611.31;;;1.90;77.31
57644;BME280;43474;46.510;6.686;2023-04-06T01:46:04;96606.91;;;1.91;77.46
57644;BME280;43474;46.510;6.686;2023-04-06T01:48:30;96617.06;;;1.86;82.24
57644;BME280;43474;46.510;6.686;2023-04-06T01:50:56;96608.66;;;1.75;81.36
57644;BME280;43474;46.510;6.686;2023-04-06T01:53:21;96608.16;;;1.95;78.84
57644;BME280;43474;46.510;6.686;2023-04-06T01:55:47;96593.09;;;1.82;80.99
57644;BME280;43474;46.510;6.686;2023-04-06T01:58:13;96588.56;;;1.76;79.59
57644;BME280;43474;46.510;6.686;2023-04-06T02:00:39;96591.16;;;1.61;81.72
57644;BME280;43474;46.510;6.686;2023-04-06T02:03:05;96613.66;;;1.85;77.96
57644;BME280;43474;46.510;6.686;2023-04-06T02:05:32;96607.41;;;1.86;77.34
57644;BME280;43474;46.510;6.686;2023-04-06T02:08:07;96610.22;;;1.85;76.65
57644;BME280;43474;46.510;6.686;2023-04-06T02:10:34;96616.88;;;1.87;78.48
57644;BME280;43474;46.510;6.686;2023-04-06T02:12:59;96603.16;;;1.70;79.24
57644;BME280;43474;46.510;6.686;2023-04-06T02:15:26;96612.03;;;1.84;79.24
57644;BME280;43474;46.510;6.686;2023-04-06T02:17:51;96610.28;;;1.76;77.92
57644;BME280;43474;46.510;6.686;2023-04-06T02:20:17;96594.84;;;1.67;78.95
57644;BME280;43474;46.510;6.686;2023-04-06T02:22:43;96609.38;;;1.69;79.46
57644;BME280;43474;46.510;6.686;2023-04-06T02:25:09;96612.78;;;1.70;80.83
57644;BME280;43474;46.510;6.686;2023-04-06T02:27:35;96609.31;;;1.54;81.04
57644;BME280;43474;46.510;6.686;2023-04-06T02:30:02;96599.63;;;1.40;84.39
57644;BME280;43474;46.510;6.686;2023-04-06T02:32:28;96592.56;;;1.26;85.45
57644;BME280;43474;46.510;6.686;2023-04-06T02:34:54;96602.03;;;1.19;83.99
57644;BME280;43474;46.510;6.686;2023-04-06T02:37:20;96597.19;;;1.39;84.69
57644;BME280;43474;46.510;6.686;2023-04-06T02:39:46;96594.97;;;1.27;84.59
57644;BME280;43474;46.510;6.686;2023-04-06T02:42:11;96579.66;;;1.01;87.27
57644;BME280;43474;46.510;6.686;2023-04-06T02:44:37;96609.13;;;1.10;89.04
57644;BME280;43474;46.510;6.686;2023-04-06T02:47:03;96575.66;;;0.91;90.98
57644;BME280;43474;46.510;6.686;2023-04-06T02:49:28;96598.16;;;0.84;91.24
57644;BME280;43474;46.510;6.686;2023-04-06T02:51:54;96592.06;;;0.68;92.02
57644;BME280;43474;46.510;6.686;2023-04-06T02:54:19;96603.44;;;0.75;93.21
57644;BME280;43474;46.510;6.686;2023-04-06T02:56:45;96570.09;;;0.63;93.71
57644;BME280;43474;46.510;6.686;2023-04-06T02:59:11;96588.00;;;0.66;93.64
57644;BME280;43474;46.510;6.686;2023-04-06T03:01:36;96560.06;;;0.43;95.32
57644;BME280;43474;46.510;6.686;2023-04-06T03:04:02;96583.41;;;0.37;97.55
57644;BME280;43474;46.510;6.686;2023-04-06T03:06:28;96605.19;;;0.44;99.43
57644;BME280;43474;46.510;6.686;2023-04-06T03:08:54;96606.88;;;0.29;100.00
57644;BME280;43474;46.510;6.686;2023-04-06T03:11:19;96594.00;;;0.27;100.00
57644;BME280;43474;46.510;6.686;2023-04-06T03:13:46;96604.25;;;0.37;100.00
57644;BME280;43474;46.510;6.686;2023-04-06T03:16:11;96596.06;;;0.40;100.00
57644;BME280;43474;46.510;6.686;2023-04-06T03:18:37;96599.72;;;0.31;100.00
57644;BME280;43474;46.510;6.686;2023-04-06T03:21:02;96596.50;;;0.20;100.00
57644;BME280;43474;46.510;6.686;2023-04-06T03:23:28;96608.78;;;0.35;100.00
57644;BME280;43474;46.510;6.686;2023-04-06T03:25:53;96610.09;;;0.39;100.00
57644;BME280;43474;46.510;6.686;2023-04-06T03:28:19;96593.16;;;0.35;100.00
57644;BME280;43474;46.510;6.686;2023-04-06T03:30:45;96609.63;;;0.35;100.00
57644;BME280;43474;46.510;6.686;2023-04-06T03:33:11;96594.00;;;0.27;100.00
57644;BME280;43474;46.510;6.686;2023-04-06T03:35:36;96603.13;;;0.31;100.00
57644;BME280;43474;46.510;6.686;2023-04-06T03:38:03;96595.63;;;0.28;100.00
57644;BME280;43474;46.510;6.686;2023-04-06T03:40:29;96600.84;;;0.28;100.00
57644;BME280;43474;46.510;6.686;2023-04-06T03:42:55;96574.72;;;0.05;100.00
57644;BME280;43474;46.510;6.686;2023-04-06T03:45:20;96618.09;;;0.29;100.00
57644;BME280;43474;46.510;6.686;2023-04-06T03:47:46;96619.75;;;0.22;100.00
57644;BME280;43474;46.510;6.686;2023-04-06T03:50:12;96597.66;;;0.02;100.00
57644;BME280;43474;46.510;6.686;2023-04-06T03:52:37;96610.97;;;0.15;100.00
57644;BME280;43474;46.510;6.686;2023-04-06T03:55:03;96615.06;;;0.09;100.00
57644;BME280;43474;46.510;6.686;2023-04-06T03:57:29;96610.19;;;0.06;100.00
57644;BME280;43474;46.510;6.686;2023-04-06T03:59:54;96624.13;;;0.30;100.00
57644;BME280;43474;46.510;6.686;2023-04-06T04:02:20;96614.06;;;0.27;100.00
57644;BME280;43474;46.510;6.686;2023-04-06T04:04:46;96625.47;;;0.25;100.00
57644;BME280;43474;46.510;6.686;2023-04-06T04:07:11;96635.56;;;0.20;100.00
57644;BME280;43474;46.510;6.686;2023-04-06T04:09:37;96609.56;;;-0.04;100.00
57644;BME280;43474;46.510;6.686;2023-04-06T04:12:02;96632.16;;;0.04;100.00
57644;BME280;43474;46.510;6.686;2023-04-06T04:14:28;96643.22;;;0.14;100.00
57644;BME280;43474;46.510;6.686;2023-04-06T04:16:54;96627.63;;;0.06;100.00
57644;BME280;43474;46.510;6.686;2023-04-06T04:19:19;96635.75;;;0.03;100.00
57644;BME280;43474;46.510;6.686;2023-04-06T04:21:46;96648.59;;;0.04;100.00
57644;BME280;43474;46.510;6.686;2023-04-06T04:24:12;96633.63;;;-0.10;100.00
57644;BME280;43474;46.510;6.686;2023-04-06T04:26:38;96640.31;;;-0.08;100.00
57644;BME280;43474;46.510;6.686;2023-04-06T04:29:04;96633.63;;;-0.10;100.00
57644;BME280;43474;46.510;6.686;2023-04-06T04:31:30;96644.56;;;0.02;100.00
57644;BME280;43474;46.510;6.686;2023-04-06T04:33:55;96628.25;;;0.08;100.00
57644;BME280;43474;46.510;6.686;2023-04-06T04:36:21;96646.16;;;0.19;100.00
57644;BME280;43474;46.510;6.686;2023-04-06T04:38:47;96622.53;;;0.20;100.00
57644;BME280;43474;46.510;6.686;2023-04-06T04:41:12;96620.06;;;0.27;100.00
57644;BME280;43474;46.510;6.686;2023-04-06T04:43:38;96635.19;;;0.40;100.00
57644;BME280;43474;46.510;6.686;2023-04-06T04:46:04;96618.78;;;0.15;100.00
57644;BME280;43474;46.510;6.686;2023-04-06T04:48:30;96651.66;;;0.32;100.00
57644;BME280;43474;46.510;6.686;2023-04-06T04:50:55;96651.97;;;0.37;100.00
57644;BME280;43474;46.510;6.686;2023-04-06T04:53:21;96628.72;;;0.19;100.00
57644;BME280;43474;46.510;6.686;2023-04-06T04:55:47;96657.38;;;0.36;100.00
57644;BME280;43474;46.510;6.686;2023-04-06T04:58:13;96662.72;;;0.34;100.00
57644;BME280;43474;46.510;6.686;2023-04-06T05:00:42;96645.81;;;0.14;100.00
57644;BME280;43474;46.510;6.686;2023-04-06T05:03:08;96667.50;;;0.06;100.00
57644;BME280;43474;46.510;6.686;2023-04-06T05:05:34;96677.44;;;0.03;100.00
57644;BME280;43474;46.510;6.686;2023-04-06T05:08:00;96667.34;;;-0.01;100.00
57644;BME280;43474;46.510;6.686;2023-04-06T05:10:26;96682.34;;;-0.03;100.00
57644;BME280;43474;46.510;6.686;2023-04-06T05:12:52;96670.94;;;-0.18;100.00
57644;BME280;43474;46.510;6.686;2023-04-06T05:15:18;96669.16;;;-0.09;100.00
57644;BME280;43474;46.510;6.686;2023-04-06T05:17:43;96670.94;;;-0.02;100.00
57644;BME280;43474;46.510;6.686;2023-04-06T05:20:10;96665.69;;;0.15;100.00
57644;BME280;43474;46.510;6.686;2023-04-06T05:22:35;96677.41;;;0.27;100.00
57644;BME280;43474;46.510;6.686;2023-04-06T05:25:02;96665.03;;;0.29;100.00
57644;BME280;43474;46.510;6.686;2023-04-06T05:27:28;96679.19;;;0.35;100.00
57644;BME280;43474;46.510;6.686;2023-04-06T05:29:53;96680.16;;;0.34;100.00
57644;BME280;43474;46.510;6.686;2023-04-06T05:32:19;96682.44;;;0.37;100.00
57644;BME280;43474;46.510;6.686;2023-04-06T05:34:48;96669.56;;;0.43;100.00
57644;BME280;43474;46.510;6.686;2023-04-06T05:37:15;96689.41;;;0.44;100.00
57644;BME280;43474;46.510;6.686;2023-04-06T05:39:41;96675.75;;;0.50;100.00
57644;BME280;43474;46.510;6.686;2023-04-06T05:42:07;96653.63;;;0.22;100.00
57644;BME280;43474;46.510;6.686;2023-04-06T05:44:32;96666.00;;;0.28;100.00
57644;BME280;43474;46.510;6.686;2023-04-06T05:46:58;96674.44;;;0.38;100.00
57644;BME280;43474;46.510;6.686;2023-04-06T05:49:24;96668.25;;;0.47;100.00
57644;BME280;43474;46.510;6.686;2023-04-06T05:51:49;96664.97;;;0.54;100.00
57644;BME280;43474;46.510;6.686;2023-04-06T05:54:15;96681.16;;;0.88;100.00
57644;BME280;43474;46.510;6.686;2023-04-06T05:56:40;96682.75;;;0.97;100.00
57644;BME280;43474;46.510;6.686;2023-04-06T05:59:07;96669.22;;;0.94;100.00
57644;BME280;43474;46.510;6.686;2023-04-06T06:01:33;96688.03;;;1.20;100.00
57644;BME280;43474;46.510;6.686;2023-04-06T06:04:00;96688.63;;;1.31;100.00
57644;BME280;43474;46.510;6.686;2023-04-06T06:06:27;96697.69;;;1.43;100.00
57644;BME280;43474;46.510;6.686;2023-04-06T06:08:53;96683.47;;;1.45;100.00
57644;BME280;43474;46.510;6.686;2023-04-06T06:11:18;96673.47;;;1.49;100.00
57644;BME280;43474;46.510;6.686;2023-04-06T06:13:44;96672.69;;;1.48;100.00
57644;BME280;43474;46.510;6.686;2023-04-06T06:16:10;96685.97;;;1.62;100.00
57644;BME280;43474;46.510;6.686;2023-04-06T06:18:36;96678.47;;;1.59;100.00
57644;BME280;43474;46.510;6.686;2023-04-06T06:21:02;96676.34;;;1.62;100.00
57644;BME280;43474;46.510;6.686;2023-04-06T06:23:28;96694.69;;;1.77;100.00
57644;BME280;43474;46.510;6.686;2023-04-06T06:25:53;96689.03;;;1.88;100.00
57644;BME280;43474;46.510;6.686;2023-04-06T06:28:19;96688.91;;;1.90;100.00
57644;BME280;43474;46.510;6.686;2023-04-06T06:30:44;96704.28;;;2.22;100.00
57644;BME280;43474;46.510;6.686;2023-04-06T06:33:10;96687.72;;;2.30;100.00
57644;BME280;43474;46.510;6.686;2023-04-06T06:35:36;96682.81;;;2.50;100.00
57644;BME280;43474;46.510;6.686;2023-04-06T06:38:02;96700.41;;;2.85;100.00
57644;BME280;43474;46.510;6.686;2023-04-06T06:40:28;96690.00;;;3.07;100.00
57644;BME280;43474;46.510;6.686;2023-04-06T06:42:53;96687.13;;;3.38;100.00
57644;BME280;43474;46.510;6.686;2023-04-06T06:45:19;96712.34;;;3.75;100.00
57644;BME280;43474;46.510;6.686;2023-04-06T06:47:46;96715.91;;;4.10;100.00
57644;BME280;43474;46.510;6.686;2023-04-06T06:50:11;96712.91;;;4.41;100.00
57644;BME280;43474;46.510;6.686;2023-04-06T06:52:37;96703.38;;;4.62;100.00
57644;BME280;43474;46.510;6.686;2023-04-06T06:55:02;96710.97;;;5.67;100.00
57644;BME280;43474;46.510;6.686;2023-04-06T06:57:28;96695.09;;;7.78;90.43
57644;BME280;43474;46.510;6.686;2023-04-06T06:59:54;96691.16;;;9.12;80.28
57644;BME280;43474;46.510;6.686;2023-04-06T07:02:20;96673.59;;;9.84;76.43
57644;BME280;43474;46.510;6.686;2023-04-06T07:04:50;96693.09;;;10.67;70.24
57644;BME280;43474;46.510;6.686;2023-04-06T07:07:16;96693.78;;;11.21;65.62
57644;BME280;43474;46.510;6.686;2023-04-06T07:09:41;96683.78;;;11.52;62.49
57644;BME280;43474;46.510;6.686;2023-04-06T07:12:07;96688.28;;;10.76;66.31
57644;BME280;43474;46.510;6.686;2023-04-06T07:14:32;96706.75;;;9.99;71.68
57644;BME280;43474;46.510;6.686;2023-04-06T07:16:58;96703.97;;;9.94;72.99
57644;BME280;43474;46.510;6.686;2023-04-06T07:19:24;96683.34;;;9.84;72.80
57644;BME280;43474;46.510;6.686;2023-04-06T07:21:51;96697.63;;;9.83;73.87
57644;BME280;43474;46.510;6.686;2023-04-06T07:24:16;96705.53;;;10.43;71.97
57644;BME280;43474;46.510;6.686;2023-04-06T07:26:42;96709.69;;;10.51;68.03
57644;BME280;43474;46.510;6.686;2023-04-06T07:29:08;96688.06;;;10.89;69.71
57644;BME280;43474;46.510;6.686;2023-04-06T07:31:33;96698.50;;;11.19;64.96
57644;BME280;43474;46.510;6.686;2023-04-06T07:34:00;96702.53;;;11.22;65.84
57644;BME280;43474;46.510;6.686;2023-04-06T07:36:26;96707.63;;;10.76;66.36
57644;BME280;43474;46.510;6.686;2023-04-06T07:38:51;96717.28;;;10.35;67.46
57644;BME280;43474;46.510;6.686;2023-04-06T07:41:17;96712.09;;;10.64;65.25
57644;BME280;43474;46.510;6.686;2023-04-06T07:43:43;96714.31;;;10.55;67.65
57644;BME280;43474;46.510;6.686;2023-04-06T07:46:09;96715.09;;;10.44;70.43
57644;BME280;43474;46.510;6.686;2023-04-06T07:48:34;96715.44;;;11.18;64.66
57644;BME280;43474;46.510;6.686;2023-04-06T07:51:04;96713.38;;;12.46;62.65
57644;BME280;43474;46.510;6.686;2023-04-06T07:53:30;96714.50;;;12.67;57.31
57644;BME280;43474;46.510;6.686;2023-04-06T07:56:00;96717.63;;;12.13;58.25
57644;BME280;43474;46.510;6.686;2023-04-06T07:58:25;96725.38;;;11.63;57.89
57644;BME280;43474;46.510;6.686;2023-04-06T08:00:51;96710.47;;;12.14;58.61
57644;BME280;43474;46.510;6.686;2023-04-06T08:03:17;96723.75;;;12.14;56.27
57644;BME280;43474;46.510;6.686;2023-04-06T08:05:43;96716.75;;;12.41;59.67
57644;BME280;43474;46.510;6.686;2023-04-06T08:08:08;96701.53;;;12.37;58.80
57644;BME280;43474;46.510;6.686;2023-04-06T08:10:34;96721.91;;;12.31;60.23
57644;BME280;43474;46.510;6.686;2023-04-06T08:13:00;96712.25;;;12.25;60.07
57644;BME280;43474;46.510;6.686;2023-04-06T08:15:26;96712.22;;;12.08;59.72
57644;BME280;43474;46.510;6.686;2023-04-06T08:17:51;96712.06;;;11.86;60.78
57644;BME280;43474;46.510;6.686;2023-04-06T08:20:17;96698.53;;;11.59;62.18
57644;BME280;43474;46.510;6.686;2023-04-06T08:22:43;96700.47;;;11.12;62.60
57644;BME280;43474;46.510;6.686;2023-04-06T08:25:08;96721.59;;;10.95;62.17
57644;BME280;43474;46.510;6.686;2023-04-06T08:27:34;96712.47;;;10.68;61.33
57644;BME280;43474;46.510;6.686;2023-04-06T08:30:00;96719.50;;;10.97;62.38
57644;BME280;43474;46.510;6.686;2023-04-06T08:32:26;96706.59;;;11.01;61.78
57644;BME280;43474;46.510;6.686;2023-04-06T08:34:55;96716.13;;;11.37;64.88
57644;BME280;43474;46.510;6.686;2023-04-06T08:37:21;96712.47;;;11.67;62.72
57644;BME280;43474;46.510;6.686;2023-04-06T08:39:47;96726.16;;;12.15;60.58
57644;BME280;43474;46.510;6.686;2023-04-06T08:42:19;96701.41;;;12.44;59.04
57644;BME280;43474;46.510;6.686;2023-04-06T08:44:46;96708.72;;;12.70;58.23
57644;BME280;43474;46.510;6.686;2023-04-06T08:47:12;96717.63;;;12.98;60.07
57644;BME280;43474;46.510;6.686;2023-04-06T08:49:38;96710.41;;;12.93;57.73
57644;BME280;43474;46.510;6.686;2023-04-06T08:52:07;96716.84;;;12.80;59.66
57644;BME280;43474;46.510;6.686;2023-04-06T08:54:36;96707.28;;;12.46;56.30
57644;BME280;43474;46.510;6.686;2023-04-06T08:57:02;96716.22;;;12.73;56.24
57644;BME280;43474;46.510;6.686;2023-04-06T08:59:28;96722.19;;;12.63;57.37
57644;BME280;43474;46.510;6.686;2023-04-06T09:01:55;96687.06;;;12.45;57.31
57644;BME280;43474;46.510;6.686;2023-04-06T09:04:21;96722.75;;;12.65;58.46
57644;BME280;43474;46.510;6.686;2023-04-06T09:06:46;96698.97;;;12.42;57.39
57644;BME280;43474;46.510;6.686;2023-04-06T09:09:12;96707.97;;;12.24;58.00
57644;BME280;43474;46.510;6.686;2023-04-06T09:11:46;96714.53;;;12.05;62.50
57644;BME280;43474;46.510;6.686;2023-04-06T09:14:13;96719.75;;;12.28;57.20
57644;BME280;43474;46.510;6.686;2023-04-06T09:16:42;96721.69;;;12.50;59.77
57644;BME280;43474;46.510;6.686;2023-04-06T09:19:09;96713.16;;;12.02;61.34
57644;BME280;43474;46.510;6.686;2023-04-06T09:21:36;96725.47;;;12.37;61.73
57644;BME280;43474;46.510;6.686;2023-04-06T09:24:03;96727.00;;;12.50;58.87
57644;BME280;43474;46.510;6.686;2023-04-06T09:26:29;96717.81;;;12.24;59.90
57644;BME280;43474;46.510;6.686;2023-04-06T09:28:58;96705.72;;;12.33;58.68
57644;BME280;43474;46.510;6.686;2023-04-06T09:31:29;96720.91;;;12.04;61.13
57644;BME280;43474;46.510;6.686;2023-04-06T09:33:56;96714.16;;;11.84;62.12
57644;BME280;43474;46.510;6.686;2023-04-06T09:36:36;96711.78;;;12.28;62.48
57644;BME280;43474;46.510;6.686;2023-04-06T09:39:06;96717.16;;;13.01;61.41
57644;BME280;43474;46.510;6.686;2023-04-06T09:41:35;96716.19;;;13.24;59.50
57644;BME280;43474;46.510;6.686;2023-04-06T09:44:08;96707.13;;;13.25;61.33
57644;BME280;43474;46.510;6.686;2023-04-06T09:46:37;96698.66;;;13.71;55.90
57644;BME280;43474;46.510;6.686;2023-04-06T09:49:03;96662.56;;;13.37;56.83
57644;BME280;43474;46.510;6.686;2023-04-06T09:51:31;96713.78;;;13.88;58.75
57644;BME280;43474;46.510;6.686;2023-04-06T09:53:57;96697.38;;;13.74;57.43
57644;BME280;43474;46.510;6.686;2023-04-06T09:56:28;96709.28;;;14.20;56.52
57644;BME280;43474;46.510;6.686;2023-04-06T09:59:02;96696.63;;;14.33;53.84
57644;BME280;43474;46.510;6.686;2023-04-06T10:01:29;96701.97;;;14.33;56.05
57644;BME280;43474;46.510;6.686;2023-04-06T10:04:21;96711.81;;;14.32;55.86
57644;BME280;43474;46.510;6.686;2023-04-06T10:06:50;96705.44;;;14.65;53.42
57644;BME280;43474;46.510;6.686;2023-04-06T10:09:19;96707.03;;;14.07;53.90
57644;BME280;43474;46.510;6.686;2023-04-06T10:11:47;96704.84;;;13.77;51.52
57644;BME280;43474;46.510;6.686;2023-04-06T10:14:13;96700.72;;;13.91;53.87
57644;BME280;43474;46.510;6.686;2023-04-06T10:16:39;96705.47;;;14.11;49.32
57644;BME280;43474;46.510;6.686;2023-04-06T10:19:20;96696.66;;;14.11;54.00
57644;BME280;43474;46.510;6.686;2023-04-06T10:21:51;96709.66;;;14.29;50.82
57644;BME280;43474;46.510;6.686;2023-04-06T10:24:19;96691.28;;;14.33;48.56
57644;BME280;43474;46.510;6.686;2023-04-06T10:26:57;96706.25;;;14.12;49.33
57644;BME280;43474;46.510;6.686;2023-04-06T10:29:23;96698.75;;;14.36;48.93
57644;BME280;43474;46.510;6.686;2023-04-06T10:31:49;96698.22;;;14.34;51.91
57644;BME280;43474;46.510;6.686;2023-04-06T10:34:15;96690.16;;;14.56;52.86
57644;BME280;43474;46.510;6.686;2023-04-06T10:36:40;96702.09;;;14.80;47.27
57644;BME280;43474;46.510;6.686;2023-04-06T10:39:06;96697.50;;;14.76;46.04
57644;BME280;43474;46.510;6.686;2023-04-06T10:41:43;96702.09;;;14.80;47.57
57644;BME280;43474;46.510;6.686;2023-04-06T10:44:23;96695.31;;;14.08;49.09
57644;BME280;43474;46.510;6.686;2023-04-06T10:46:54;96698.75;;;14.04;50.15
57644;BME280;43474;46.510;6.686;2023-04-06T10:49:20;96693.25;;;13.88;49.22
57644;BME280;43474;46.510;6.686;2023-04-06T10:51:51;96700.50;;;13.93;50.23
57644;BME280;43474;46.510;6.686;2023-04-06T10:54:19;96702.31;;;14.46;48.00
57644;BME280;43474;46.510;6.686;2023-04-06T10:56:46;96688.63;;;14.33;49.82
57644;BME280;43474;46.510;6.686;2023-04-06T10:59:11;96691.06;;;14.39;50.34
57644;BME280;43474;46.510;6.686;2023-04-06T11:01:37;96697.38;;;14.28;48.97
57644;BME280;43474;46.510;6.686;2023-04-06T11:04:03;96698.31;;;14.44;47.26
57644;BME280;43474;46.510;6.686;2023-04-06T11:06:30;96697.91;;;14.94;49.18
57644;BME280;43474;46.510;6.686;2023-04-06T11:08:57;96690.13;;;14.51;45.37
57644;BME280;43474;46.510;6.686;2023-04-06T11:11:25;96698.88;;;14.78;43.45
57644;BME280;43474;46.510;6.686;2023-04-06T11:13:53;96693.47;;;14.41;41.73
57644;BME280;43474;46.510;6.686;2023-04-06T11:16:28;96695.25;;;14.57;42.40
57644;BME280;43474;46.510;6.686;2023-04-06T11:18:58;96691.06;;;14.07;43.54
57644;BME280;43474;46.510;6.686;2023-04-06T11:21:46;96679.06;;;14.69;40.57
57644;BME280;43474;46.510;6.686;2023-04-06T11:24:19;96686.00;;;15.07;40.79
57644;BME280;43474;46.510;6.686;2023-04-06T11:26:46;96677.13;;;15.02;37.99
57644;BME280;43474;46.510;6.686;2023-04-06T11:29:16;96673.72;;;14.69;38.45
57644;BME280;43474;46.510;6.686;2023-04-06T11:31:45;96678.94;;;14.91;42.16
57644;BME280;43474;46.510;6.686;2023-04-06T11:34:22;96660.88;;;15.03;36.81
57644;BME280;43474;46.510;6.686;2023-04-06T11:36:53;96667.69;;;15.31;38.66
57644;BME280;43474;46.510;6.686;2023-04-06T11:39:21;96666.28;;;15.18;39.06
57644;BME280;43474;46.510;6.686;2023-04-06T11:41:50;96672.47;;;15.24;41.62
57644;BME280;43474;46.510;6.686;2023-04-06T11:47:05;96669.38;;;15.52;37.27
57644;BME280;43474;46.510;6.686;2023-04-06T11:49:33;96656.50;;;15.39;39.38
57644;BME280;43474;46.510;6.686;2023-04-06T11:52:00;96661.84;;;15.39;38.73
57644;BME280;43474;46.510;6.686;2023-04-06T11:54:33;96643.69;;;15.41;36.86
57644;BME280;43474;46.510;6.686;2023-04-06T11:56:59;96662.94;;;15.43;35.69
57644;BME280;43474;46.510;6.686;2023-04-06T11:59:26;96655.66;;;15.29;35.60
57644;BME280;43474;46.510;6.686;2023-04-06T12:01:52;96651.25;;;14.97;38.53
57644;BME280;43474;46.510;6.686;2023-04-06T12:04:19;96651.31;;;15.12;38.94
57644;BME280;43474;46.510;6.686;2023-04-06T12:06:45;96646.66;;;14.87;39.89
57644;BME280;43474;46.510;6.686;2023-04-06T12:09:11;96644.44;;;14.74;39.87
57644;BME280;43474;46.510;6.686;2023-04-06T12:11:37;96645.16;;;14.64;39.11
57644;BME280;43474;46.510;6.686;2023-04-06T12:14:03;96645.53;;;14.78;39.86
57644;BME280;43474;46.510;6.686;2023-04-06T12:16:34;96648.88;;;15.11;40.76
57644;BME280;43474;46.510;6.686;2023-04-06T12:19:00;96641.94;;;15.05;37.95
57644;BME280;43474;46.510;6.686;2023-04-06T12:21:30;96642.56;;;14.74;39.35
57644;BME280;43474;46.510;6.686;2023-04-06T12:23:57;96635.56;;;14.36;39.22
57644;BME280;43474;46.510;6.686;2023-04-06T12:26:24;96639.94;;;14.15;42.85
57644;BME280;43474;46.510;6.686;2023-04-06T12:28:50;96642.91;;;13.92;40.68
57644;BME280;43474;46.510;6.686;2023-04-06T12:31:22;96635.63;;;14.09;39.55
57644;BME280;43474;46.510;6.686;2023-04-06T12:33:49;96627.34;;;14.38;38.35
57644;BME280;43474;46.510;6.686;2023-04-06T12:36:16;96636.41;;;14.42;38.42
57644;BME280;43474;46.510;6.686;2023-04-06T12:38:47;96639.25;;;14.57;34.77
57644;BME280;43474;46.510;6.686;2023-04-06T12:41:13;96635.06;;;14.71;36.47
57644;BME280;43474;46.510;6.686;2023-04-06T12:43:41;96629.16;;;15.12;36.41
57644;BME280;43474;46.510;6.686;2023-04-06T12:46:07;96631.81;;;15.07;35.49
57644;BME280;43474;46.510;6.686;2023-04-06T12:48:32;96625.25;;;15.35;38.07
57644;BME280;43474;46.510;6.686;2023-04-06T12:51:00;96630.28;;;15.26;35.32
57644;BME280;43474;46.510;6.686;2023-04-06T12:53:26;96617.50;;;15.38;33.81
57644;BME280;43474;46.510;6.686;2023-04-06T12:55:53;96633.81;;;15.42;34.06
57644;BME280;43474;46.510;6.686;2023-04-06T12:58:19;96623.59;;;15.23;34.21
57644;BME280;43474;46.510;6.686;2023-04-06T13:00:46;96628.72;;;15.35;34.43
57644;BME280;43474;46.510;6.686;2023-04-06T13:03:12;96626.66;;;15.52;35.04